sensor_id;sensor_type;location;lat;lon;timestamp;temperature;humidity
13322;DHT22;6730;46.248;6.930;2022-07-23T00:00:16;23.70;92.80
13322;DHT22;6730;46.248;6.930;2022-07-23T00:02:42;23.70;92.80
13322;DHT22;6730;46.248;6.930;2022-07-23T00:05:08;23.70;92.70
13322;DHT22;6730;46.248;6.930;2022-07-23T00:07:34;23.70;92.70
13322;DHT22;6730;46.248;6.930;2022-07-23T00:10:00;23.80;92.30
13322;DHT22;6730;46.248;6.930;2022-07-23T00:12:26;23.90;92.70
13322;DHT22;6730;46.248;6.930;2022-07-23T00:14:51;23.80;92.60
13322;DHT22;6730;46.248;6.930;2022-07-23T00:17:17;23.70;92.70
13322;DHT22;6730;46.248;6.930;2022-07-23T00:19:43;23.70;92.60
13322;DHT22;6730;46.248;6.930;2022-07-23T00:22:09;23.70;92.50
13322;DHT22;6730;46.248;6.930;2022-07-23T00:24:34;23.70;92.60
13322;DHT22;6730;46.248;6.930;2022-07-23T00:27:00;23.70;92.60
13322;DHT22;6730;46.248;6.930;2022-07-23T00:29:25;23.70;92.30
13322;DHT22;6730;46.248;6.930;2022-07-23T00:31:51;23.80;92.30
13322;DHT22;6730;46.248;6.930;2022-07-23T00:34:17;23.80;92.20
13322;DHT22;6730;46.248;6.930;2022-07-23T00:36:42;23.80;92.30
13322;DHT22;6730;46.248;6.930;2022-07-23T00:39:08;23.60;92.50
13322;DHT22;6730;46.248;6.930;2022-07-23T00:41:34;23.60;92.60
13322;DHT22;6730;46.248;6.930;2022-07-23T00:44:17;23.30;93.00
13322;DHT22;6730;46.248;6.930;2022-07-23T00:46:49;23.40;92.70
13322;DHT22;6730;46.248;6.930;2022-07-23T00:49:15;23.40;92.90
13322;DHT22;6730;46.248;6.930;2022-07-23T00:51:41;23.30;93.20
13322;DHT22;6730;46.248;6.930;2022-07-23T00:54:07;23.40;93.00
13322;DHT22;6730;46.248;6.930;2022-07-23T00:56:33;23.50;92.80
13322;DHT22;6730;46.248;6.930;2022-07-23T00:59:00;23.50;92.70
13322;DHT22;6730;46.248;6.930;2022-07-23T01:01:26;23.60;92.30
13322;DHT22;6730;46.248;6.930;2022-07-23T01:03:52;23.50;92.40
13322;DHT22;6730;46.248;6.930;2022-07-23T01:06:18;23.40;92.70
13322;DHT22;6730;46.248;6.930;2022-07-23T01:08:43;23.10;92.90
13322;DHT22;6730;46.248;6.930;2022-07-23T01:11:10;23.30;92.60
13322;DHT22;6730;46.248;6.930;2022-07-23T01:13:41;23.40;92.50
13322;DHT22;6730;46.248;6.930;2022-07-23T01:16:07;23.30;92.60
13322;DHT22;6730;46.248;6.930;2022-07-23T01:18:33;23.20;92.90
13322;DHT22;6730;46.248;6.930;2022-07-23T01:20:59;23.00;92.80
13322;DHT22;6730;46.248;6.930;2022-07-23T01:23:24;23.00;92.70
13322;DHT22;6730;46.248;6.930;2022-07-23T01:25:54;23.00;92.70
13322;DHT22;6730;46.248;6.930;2022-07-23T01:28:20;23.10;92.80
13322;DHT22;6730;46.248;6.930;2022-07-23T01:30:46;23.10;92.90
13322;DHT22;6730;46.248;6.930;2022-07-23T01:33:13;23.00;93.00
13322;DHT22;6730;46.248;6.930;2022-07-23T01:35:39;23.10;93.20
13322;DHT22;6730;46.248;6.930;2022-07-23T01:38:04;23.30;93.20
13322;DHT22;6730;46.248;6.930;2022-07-23T01:40:30;23.00;94.00
13322;DHT22;6730;46.248;6.930;2022-07-23T01:42:56;22.70;93.90
13322;DHT22;6730;46.248;6.930;2022-07-23T01:45:22;22.90;93.80
13322;DHT22;6730;46.248;6.930;2022-07-23T01:47:48;23.20;94.30
13322;DHT22;6730;46.248;6.930;2022-07-23T01:50:14;23.00;94.30
13322;DHT22;6730;46.248;6.930;2022-07-23T01:52:39;23.10;94.00
13322;DHT22;6730;46.248;6.930;2022-07-23T01:55:06;23.10;95.00
13322;DHT22;6730;46.248;6.930;2022-07-23T01:57:32;23.00;95.30
13322;DHT22;6730;46.248;6.930;2022-07-23T01:59:58;22.40;97.00
13322;DHT22;6730;46.248;6.930;2022-07-23T02:02:23;22.40;97.50
13322;DHT22;6730;46.248;6.930;2022-07-23T02:04:49;22.30;96.10
13322;DHT22;6730;46.248;6.930;2022-07-23T02:07:15;22.30;95.70
13322;DHT22;6730;46.248;6.930;2022-07-23T02:09:41;21.90;96.60
13322;DHT22;6730;46.248;6.930;2022-07-23T02:12:06;21.40;98.50
13322;DHT22;6730;46.248;6.930;2022-07-23T02:14:32;21.30;98.30
13322;DHT22;6730;46.248;6.930;2022-07-23T02:16:58;21.10;98.80
13322;DHT22;6730;46.248;6.930;2022-07-23T02:19:24;20.60;99.90
13322;DHT22;6730;46.248;6.930;2022-07-23T02:21:50;20.50;99.90
13322;DHT22;6730;46.248;6.930;2022-07-23T02:24:16;20.70;99.90
13322;DHT22;6730;46.248;6.930;2022-07-23T02:26:41;20.90;99.90
13322;DHT22;6730;46.248;6.930;2022-07-23T02:29:07;21.40;99.00
13322;DHT22;6730;46.248;6.930;2022-07-23T02:31:33;21.50;99.90
13322;DHT22;6730;46.248;6.930;2022-07-23T02:34:00;21.50;98.50
13322;DHT22;6730;46.248;6.930;2022-07-23T02:36:25;21.50;97.80
13322;DHT22;6730;46.248;6.930;2022-07-23T02:38:51;21.60;96.50
13322;DHT22;6730;46.248;6.930;2022-07-23T02:41:17;21.80;95.90
13322;DHT22;6730;46.248;6.930;2022-07-23T02:43:43;21.90;95.20
13322;DHT22;6730;46.248;6.930;2022-07-23T02:46:08;22.10;95.50
13322;DHT22;6730;46.248;6.930;2022-07-23T02:48:34;21.80;97.10
13322;DHT22;6730;46.248;6.930;2022-07-23T02:51:00;21.20;99.30
13322;DHT22;6730;46.248;6.930;2022-07-23T02:53:25;20.40;99.90
13322;DHT22;6730;46.248;6.930;2022-07-23T02:55:51;20.40;99.90
13322;DHT22;6730;46.248;6.930;2022-07-23T02:58:17;20.80;98.90
13322;DHT22;6730;46.248;6.930;2022-07-23T03:00:43;21.20;98.50
13322;DHT22;6730;46.248;6.930;2022-07-23T03:03:09;21.50;98.80
13322;DHT22;6730;46.248;6.930;2022-07-23T03:05:35;21.50;98.00
13322;DHT22;6730;46.248;6.930;2022-07-23T03:08:01;21.50;97.30
13322;DHT22;6730;46.248;6.930;2022-07-23T03:10:26;21.70;97.00
13322;DHT22;6730;46.248;6.930;2022-07-23T03:12:52;21.90;97.60
13322;DHT22;6730;46.248;6.930;2022-07-23T03:15:18;21.80;97.40
13322;DHT22;6730;46.248;6.930;2022-07-23T03:17:43;21.90;97.50
13322;DHT22;6730;46.248;6.930;2022-07-23T03:20:10;21.90;96.40
13322;DHT22;6730;46.248;6.930;2022-07-23T03:22:35;22.00;96.10
13322;DHT22;6730;46.248;6.930;2022-07-23T03:25:01;22.00;96.60
13322;DHT22;6730;46.248;6.930;2022-07-23T03:27:30;21.80;97.00
13322;DHT22;6730;46.248;6.930;2022-07-23T03:29:57;21.80;96.80
13322;DHT22;6730;46.248;6.930;2022-07-23T03:32:24;21.90;96.20
13322;DHT22;6730;46.248;6.930;2022-07-23T03:34:50;22.00;96.30
13322;DHT22;6730;46.248;6.930;2022-07-23T03:37:19;22.00;96.30
13322;DHT22;6730;46.248;6.930;2022-07-23T03:39:45;22.10;96.40
13322;DHT22;6730;46.248;6.930;2022-07-23T03:42:11;22.20;96.00
13322;DHT22;6730;46.248;6.930;2022-07-23T03:44:37;22.30;96.10
13322;DHT22;6730;46.248;6.930;2022-07-23T03:47:04;22.30;96.10
13322;DHT22;6730;46.248;6.930;2022-07-23T03:49:30;22.30;95.90
13322;DHT22;6730;46.248;6.930;2022-07-23T03:51:56;22.40;95.80
13322;DHT22;6730;46.248;6.930;2022-07-23T03:54:21;22.40;95.70
13322;DHT22;6730;46.248;6.930;2022-07-23T03:56:47;22.10;96.40
13322;DHT22;6730;46.248;6.930;2022-07-23T03:59:13;21.70;96.80
13322;DHT22;6730;46.248;6.930;2022-07-23T04:01:39;21.80;97.10
13322;DHT22;6730;46.248;6.930;2022-07-23T04:04:05;21.90;97.00
13322;DHT22;6730;46.248;6.930;2022-07-23T04:06:30;22.00;97.20
13322;DHT22;6730;46.248;6.930;2022-07-23T04:08:56;22.10;96.90
13322;DHT22;6730;46.248;6.930;2022-07-23T04:11:22;22.10;97.00
13322;DHT22;6730;46.248;6.930;2022-07-23T04:13:47;22.00;97.10
13322;DHT22;6730;46.248;6.930;2022-07-23T04:16:13;22.00;97.20
13322;DHT22;6730;46.248;6.930;2022-07-23T04:18:39;22.10;97.20
13322;DHT22;6730;46.248;6.930;2022-07-23T04:21:04;22.20;97.00
13322;DHT22;6730;46.248;6.930;2022-07-23T04:23:30;22.20;96.90
13322;DHT22;6730;46.248;6.930;2022-07-23T04:25:56;22.20;97.30
13322;DHT22;6730;46.248;6.930;2022-07-23T04:28:21;22.40;96.60
13322;DHT22;6730;46.248;6.930;2022-07-23T04:30:47;22.00;98.40
13322;DHT22;6730;46.248;6.930;2022-07-23T04:33:13;21.80;97.70
13322;DHT22;6730;46.248;6.930;2022-07-23T04:35:38;22.10;97.20
13322;DHT22;6730;46.248;6.930;2022-07-23T04:38:04;22.40;97.10
13322;DHT22;6730;46.248;6.930;2022-07-23T04:40:30;22.40;96.90
13322;DHT22;6730;46.248;6.930;2022-07-23T04:42:56;22.60;96.50
13322;DHT22;6730;46.248;6.930;2022-07-23T04:45:21;22.80;96.20
13322;DHT22;6730;46.248;6.930;2022-07-23T04:47:49;22.90;96.00
13322;DHT22;6730;46.248;6.930;2022-07-23T04:50:14;22.80;96.10
13322;DHT22;6730;46.248;6.930;2022-07-23T04:52:44;22.80;96.40
13322;DHT22;6730;46.248;6.930;2022-07-23T04:55:10;22.90;96.30
13322;DHT22;6730;46.248;6.930;2022-07-23T04:57:36;23.00;96.20
13322;DHT22;6730;46.248;6.930;2022-07-23T05:00:03;22.80;96.30
13322;DHT22;6730;46.248;6.930;2022-07-23T05:02:29;23.00;95.90
13322;DHT22;6730;46.248;6.930;2022-07-23T05:04:55;23.00;96.20
13322;DHT22;6730;46.248;6.930;2022-07-23T05:07:20;23.00;96.70
13322;DHT22;6730;46.248;6.930;2022-07-23T05:09:46;22.60;96.30
13322;DHT22;6730;46.248;6.930;2022-07-23T05:12:12;22.70;96.50
13322;DHT22;6730;46.248;6.930;2022-07-23T05:14:37;22.80;96.90
13322;DHT22;6730;46.248;6.930;2022-07-23T05:17:03;22.90;96.90
13322;DHT22;6730;46.248;6.930;2022-07-23T05:19:29;22.60;97.50
13322;DHT22;6730;46.248;6.930;2022-07-23T05:21:54;22.80;96.70
13322;DHT22;6730;46.248;6.930;2022-07-23T05:24:20;23.10;96.30
13322;DHT22;6730;46.248;6.930;2022-07-23T05:26:46;23.40;96.00
13322;DHT22;6730;46.248;6.930;2022-07-23T05:29:11;23.40;96.10
13322;DHT22;6730;46.248;6.930;2022-07-23T05:31:37;23.60;96.10
13322;DHT22;6730;46.248;6.930;2022-07-23T05:34:03;23.70;96.20
13322;DHT22;6730;46.248;6.930;2022-07-23T05:36:31;23.70;96.20
13322;DHT22;6730;46.248;6.930;2022-07-23T05:38:57;23.50;97.40
13322;DHT22;6730;46.248;6.930;2022-07-23T05:41:22;23.60;96.60
13322;DHT22;6730;46.248;6.930;2022-07-23T05:43:48;23.60;97.50
13322;DHT22;6730;46.248;6.930;2022-07-23T05:46:14;23.30;97.90
13322;DHT22;6730;46.248;6.930;2022-07-23T05:48:40;23.10;97.80
13322;DHT22;6730;46.248;6.930;2022-07-23T05:51:06;23.10;98.00
13322;DHT22;6730;46.248;6.930;2022-07-23T05:53:33;23.20;97.70
13322;DHT22;6730;46.248;6.930;2022-07-23T05:55:59;23.40;97.50
13322;DHT22;6730;46.248;6.930;2022-07-23T05:58:25;23.30;98.70
13322;DHT22;6730;46.248;6.930;2022-07-23T06:00:51;23.70;98.40
13322;DHT22;6730;46.248;6.930;2022-07-23T06:03:17;23.80;97.60
13322;DHT22;6730;46.248;6.930;2022-07-23T06:05:42;23.60;97.50
13322;DHT22;6730;46.248;6.930;2022-07-23T06:08:08;23.50;97.80
13322;DHT22;6730;46.248;6.930;2022-07-23T06:10:34;23.30;99.20
13322;DHT22;6730;46.248;6.930;2022-07-23T06:12:59;22.90;99.80
13322;DHT22;6730;46.248;6.930;2022-07-23T06:15:25;22.20;99.90
13322;DHT22;6730;46.248;6.930;2022-07-23T06:17:51;21.50;99.90
13322;DHT22;6730;46.248;6.930;2022-07-23T06:20:17;21.40;99.90
13322;DHT22;6730;46.248;6.930;2022-07-23T06:22:42;21.40;99.90
13322;DHT22;6730;46.248;6.930;2022-07-23T06:25:08;21.30;99.90
13322;DHT22;6730;46.248;6.930;2022-07-23T06:27:34;21.20;99.90
13322;DHT22;6730;46.248;6.930;2022-07-23T06:30:00;21.20;99.90
13322;DHT22;6730;46.248;6.930;2022-07-23T06:32:25;21.50;99.90
13322;DHT22;6730;46.248;6.930;2022-07-23T06:34:51;21.50;99.90
13322;DHT22;6730;46.248;6.930;2022-07-23T06:37:17;21.70;99.90
13322;DHT22;6730;46.248;6.930;2022-07-23T06:39:43;22.00;99.90
13322;DHT22;6730;46.248;6.930;2022-07-23T06:42:08;22.30;99.90
13322;DHT22;6730;46.248;6.930;2022-07-23T06:44:35;22.70;99.90
13322;DHT22;6730;46.248;6.930;2022-07-23T06:47:01;23.30;99.90
13322;DHT22;6730;46.248;6.930;2022-07-23T06:49:27;23.80;99.90
13322;DHT22;6730;46.248;6.930;2022-07-23T06:51:52;24.20;99.90
13322;DHT22;6730;46.248;6.930;2022-07-23T06:54:18;24.50;99.90
13322;DHT22;6730;46.248;6.930;2022-07-23T06:56:44;25.00;99.70
13322;DHT22;6730;46.248;6.930;2022-07-23T06:59:09;24.80;99.30
13322;DHT22;6730;46.248;6.930;2022-07-23T07:01:35;25.10;99.00
13322;DHT22;6730;46.248;6.930;2022-07-23T07:04:01;24.90;99.50
13322;DHT22;6730;46.248;6.930;2022-07-23T07:06:26;25.20;99.40
13322;DHT22;6730;46.248;6.930;2022-07-23T07:08:52;25.30;99.10
13322;DHT22;6730;46.248;6.930;2022-07-23T07:11:18;25.40;99.20
13322;DHT22;6730;46.248;6.930;2022-07-23T07:13:43;25.10;97.90
13322;DHT22;6730;46.248;6.930;2022-07-23T07:16:09;25.10;98.60
13322;DHT22;6730;46.248;6.930;2022-07-23T07:18:35;25.60;98.90
13322;DHT22;6730;46.248;6.930;2022-07-23T07:21:00;25.90;98.70
13322;DHT22;6730;46.248;6.930;2022-07-23T07:23:26;26.10;97.80
13322;DHT22;6730;46.248;6.930;2022-07-23T07:25:52;26.50;98.70
13322;DHT22;6730;46.248;6.930;2022-07-23T07:28:17;26.70;97.30
13322;DHT22;6730;46.248;6.930;2022-07-23T07:30:43;27.00;97.00
13322;DHT22;6730;46.248;6.930;2022-07-23T07:33:09;26.80;97.40
13322;DHT22;6730;46.248;6.930;2022-07-23T07:35:34;26.30;96.80
13322;DHT22;6730;46.248;6.930;2022-07-23T07:38:00;26.40;98.30
13322;DHT22;6730;46.248;6.930;2022-07-23T07:40:26;26.40;98.20
13322;DHT22;6730;46.248;6.930;2022-07-23T07:42:54;25.70;98.60
13322;DHT22;6730;46.248;6.930;2022-07-23T07:45:21;25.50;99.20
13322;DHT22;6730;46.248;6.930;2022-07-23T07:47:47;25.80;99.70
13322;DHT22;6730;46.248;6.930;2022-07-23T07:50:13;26.30;99.10
13322;DHT22;6730;46.248;6.930;2022-07-23T07:52:39;26.10;98.20
13322;DHT22;6730;46.248;6.930;2022-07-23T07:55:05;26.00;98.20
13322;DHT22;6730;46.248;6.930;2022-07-23T07:57:32;26.50;97.60
13322;DHT22;6730;46.248;6.930;2022-07-23T07:59:57;27.10;97.80
13322;DHT22;6730;46.248;6.930;2022-07-23T08:02:23;26.80;99.90
13322;DHT22;6730;46.248;6.930;2022-07-23T08:04:49;27.40;97.70
13322;DHT22;6730;46.248;6.930;2022-07-23T08:07:15;27.20;98.90
13322;DHT22;6730;46.248;6.930;2022-07-23T08:09:41;27.20;97.80
13322;DHT22;6730;46.248;6.930;2022-07-23T08:12:07;26.90;99.00
13322;DHT22;6730;46.248;6.930;2022-07-23T08:14:33;26.60;98.10
13322;DHT22;6730;46.248;6.930;2022-07-23T08:16:58;26.80;98.50
13322;DHT22;6730;46.248;6.930;2022-07-23T08:19:24;27.10;98.30
13322;DHT22;6730;46.248;6.930;2022-07-23T08:21:50;27.10;98.50
13322;DHT22;6730;46.248;6.930;2022-07-23T08:24:15;27.20;98.00
13322;DHT22;6730;46.248;6.930;2022-07-23T08:26:41;27.30;96.90
13322;DHT22;6730;46.248;6.930;2022-07-23T08:29:07;27.30;97.40
13322;DHT22;6730;46.248;6.930;2022-07-23T08:31:32;27.80;96.30
13322;DHT22;6730;46.248;6.930;2022-07-23T08:34:01;28.00;97.50
13322;DHT22;6730;46.248;6.930;2022-07-23T08:36:28;28.20;95.60
13322;DHT22;6730;46.248;6.930;2022-07-23T08:38:57;27.50;95.60
13322;DHT22;6730;46.248;6.930;2022-07-23T08:41:22;26.80;96.40
13322;DHT22;6730;46.248;6.930;2022-07-23T08:43:48;26.40;97.40
13322;DHT22;6730;46.248;6.930;2022-07-23T08:46:14;26.60;97.30
13322;DHT22;6730;46.248;6.930;2022-07-23T08:48:42;27.30;95.80
13322;DHT22;6730;46.248;6.930;2022-07-23T08:51:08;27.20;95.70
13322;DHT22;6730;46.248;6.930;2022-07-23T08:53:36;27.40;96.80
13322;DHT22;6730;46.248;6.930;2022-07-23T08:56:05;28.00;96.10
13322;DHT22;6730;46.248;6.930;2022-07-23T08:58:31;28.30;95.30
13322;DHT22;6730;46.248;6.930;2022-07-23T09:00:58;28.00;94.50
13322;DHT22;6730;46.248;6.930;2022-07-23T09:03:29;27.90;96.00
13322;DHT22;6730;46.248;6.930;2022-07-23T09:05:55;28.40;94.30
13322;DHT22;6730;46.248;6.930;2022-07-23T09:08:39;27.00;95.50
13322;DHT22;6730;46.248;6.930;2022-07-23T09:11:07;26.80;96.10
13322;DHT22;6730;46.248;6.930;2022-07-23T09:13:51;26.70;97.40
13322;DHT22;6730;46.248;6.930;2022-07-23T09:16:29;27.40;96.70
13322;DHT22;6730;46.248;6.930;2022-07-23T09:18:59;27.60;95.20
13322;DHT22;6730;46.248;6.930;2022-07-23T09:24:06;28.00;95.10
13322;DHT22;6730;46.248;6.930;2022-07-23T09:26:40;28.00;95.60
13322;DHT22;6730;46.248;6.930;2022-07-23T09:29:18;28.00;95.20
13322;DHT22;6730;46.248;6.930;2022-07-23T09:36:45;28.50;95.60
13322;DHT22;6730;46.248;6.930;2022-07-23T09:39:12;28.20;94.50
13322;DHT22;6730;46.248;6.930;2022-07-23T09:41:45;28.00;95.30
13322;DHT22;6730;46.248;6.930;2022-07-23T09:44:17;28.00;95.30
13322;DHT22;6730;46.248;6.930;2022-07-23T09:46:47;27.90;95.40
13322;DHT22;6730;46.248;6.930;2022-07-23T09:49:17;28.10;95.60
13322;DHT22;6730;46.248;6.930;2022-07-23T09:54:21;27.80;95.20
13322;DHT22;6730;46.248;6.930;2022-07-23T09:56:48;27.80;96.00
13322;DHT22;6730;46.248;6.930;2022-07-23T09:59:16;28.10;96.20
13322;DHT22;6730;46.248;6.930;2022-07-23T10:01:44;28.20;94.50
13322;DHT22;6730;46.248;6.930;2022-07-23T10:04:11;27.80;95.20
13322;DHT22;6730;46.248;6.930;2022-07-23T10:06:39;27.50;95.90
13322;DHT22;6730;46.248;6.930;2022-07-23T10:09:07;27.70;95.00
13322;DHT22;6730;46.248;6.930;2022-07-23T10:11:34;28.10;94.50
13322;DHT22;6730;46.248;6.930;2022-07-23T10:14:01;28.00;95.10
13322;DHT22;6730;46.248;6.930;2022-07-23T10:16:29;28.40;96.90
13322;DHT22;6730;46.248;6.930;2022-07-23T10:18:55;28.40;94.80
13322;DHT22;6730;46.248;6.930;2022-07-23T10:21:34;28.20;95.10
13322;DHT22;6730;46.248;6.930;2022-07-23T10:24:24;28.10;94.10
13322;DHT22;6730;46.248;6.930;2022-07-23T10:29:47;28.50;95.00
13322;DHT22;6730;46.248;6.930;2022-07-23T10:38:07;27.80;95.40
13322;DHT22;6730;46.248;6.930;2022-07-23T10:40:36;27.50;95.00
13322;DHT22;6730;46.248;6.930;2022-07-23T10:43:02;27.40;95.10
13322;DHT22;6730;46.248;6.930;2022-07-23T10:45:40;27.40;95.20
13322;DHT22;6730;46.248;6.930;2022-07-23T10:48:15;27.90;95.70
13322;DHT22;6730;46.248;6.930;2022-07-23T10:50:43;27.80;95.10
13322;DHT22;6730;46.248;6.930;2022-07-23T10:53:16;28.10;95.10
13322;DHT22;6730;46.248;6.930;2022-07-23T10:55:45;28.10;95.40
13322;DHT22;6730;46.248;6.930;2022-07-23T10:58:12;27.80;95.30
13322;DHT22;6730;46.248;6.930;2022-07-23T11:00:42;27.70;95.00
13322;DHT22;6730;46.248;6.930;2022-07-23T11:05:55;27.40;95.70
13322;DHT22;6730;46.248;6.930;2022-07-23T11:08:21;27.50;96.30
13322;DHT22;6730;46.248;6.930;2022-07-23T11:13:31;27.80;94.90
13322;DHT22;6730;46.248;6.930;2022-07-23T11:18:56;27.80;97.60
13322;DHT22;6730;46.248;6.930;2022-07-23T11:26:42;28.80;95.40
13322;DHT22;6730;46.248;6.930;2022-07-23T11:34:39;28.00;94.70
13322;DHT22;6730;46.248;6.930;2022-07-23T11:37:07;27.90;97.30
13322;DHT22;6730;46.248;6.930;2022-07-23T11:39:33;28.40;95.30
13322;DHT22;6730;46.248;6.930;2022-07-23T11:42:01;28.10;95.10
13322;DHT22;6730;46.248;6.930;2022-07-23T11:44:33;27.70;94.80
13322;DHT22;6730;46.248;6.930;2022-07-23T11:47:04;27.50;95.10
13322;DHT22;6730;46.248;6.930;2022-07-23T11:49:30;27.10;95.50
13322;DHT22;6730;46.248;6.930;2022-07-23T11:52:09;27.00;95.80
13322;DHT22;6730;46.248;6.930;2022-07-23T11:54:37;27.00;95.70
13322;DHT22;6730;46.248;6.930;2022-07-23T11:57:11;26.90;95.50
13322;DHT22;6730;46.248;6.930;2022-07-23T11:59:39;26.90;95.60
13322;DHT22;6730;46.248;6.930;2022-07-23T12:02:06;26.90;96.10
13322;DHT22;6730;46.248;6.930;2022-07-23T12:04:41;27.10;95.70
13322;DHT22;6730;46.248;6.930;2022-07-23T12:09:52;27.50;94.90
13322;DHT22;6730;46.248;6.930;2022-07-23T12:12:18;27.30;95.50
13322;DHT22;6730;46.248;6.930;2022-07-23T12:14:53;27.20;95.50
13322;DHT22;6730;46.248;6.930;2022-07-23T12:17:20;27.50;95.30
13322;DHT22;6730;46.248;6.930;2022-07-23T12:19:47;27.60;94.80
13322;DHT22;6730;46.248;6.930;2022-07-23T12:22:14;27.30;95.00
13322;DHT22;6730;46.248;6.930;2022-07-23T12:25:00;27.10;95.30
13322;DHT22;6730;46.248;6.930;2022-07-23T12:27:27;26.90;95.70
13322;DHT22;6730;46.248;6.930;2022-07-23T12:29:53;27.00;95.60
13322;DHT22;6730;46.248;6.930;2022-07-23T12:32:23;27.10;95.30
13322;DHT22;6730;46.248;6.930;2022-07-23T12:34:51;27.10;95.60
13322;DHT22;6730;46.248;6.930;2022-07-23T12:37:34;27.20;95.90
13322;DHT22;6730;46.248;6.930;2022-07-23T12:40:20;27.20;96.00
13322;DHT22;6730;46.248;6.930;2022-07-23T12:42:48;27.30;95.50
13322;DHT22;6730;46.248;6.930;2022-07-23T12:45:14;27.40;95.40
13322;DHT22;6730;46.248;6.930;2022-07-23T12:47:53;27.60;96.20
13322;DHT22;6730;46.248;6.930;2022-07-23T12:50:35;27.60;95.30
13322;DHT22;6730;46.248;6.930;2022-07-23T12:53:03;27.50;95.20
13322;DHT22;6730;46.248;6.930;2022-07-23T12:55:29;27.40;95.10
13322;DHT22;6730;46.248;6.930;2022-07-23T12:58:03;27.40;95.30
13322;DHT22;6730;46.248;6.930;2022-07-23T13:00:30;27.50;95.10
13322;DHT22;6730;46.248;6.930;2022-07-23T13:02:56;27.40;94.90
13322;DHT22;6730;46.248;6.930;2022-07-23T13:05:22;27.50;95.10
13322;DHT22;6730;46.248;6.930;2022-07-23T13:07:48;27.70;95.00
13322;DHT22;6730;46.248;6.930;2022-07-23T13:10:13;27.50;95.10
13322;DHT22;6730;46.248;6.930;2022-07-23T13:12:39;27.60;95.50
13322;DHT22;6730;46.248;6.930;2022-07-23T13:15:05;27.60;95.60
13322;DHT22;6730;46.248;6.930;2022-07-23T13:17:31;27.50;95.40
13322;DHT22;6730;46.248;6.930;2022-07-23T13:19:57;27.80;96.60
13322;DHT22;6730;46.248;6.930;2022-07-23T13:22:23;28.00;95.40
13322;DHT22;6730;46.248;6.930;2022-07-23T13:24:48;27.60;95.30
13322;DHT22;6730;46.248;6.930;2022-07-23T13:27:15;27.50;96.00
13322;DHT22;6730;46.248;6.930;2022-07-23T13:29:41;27.30;95.60
13322;DHT22;6730;46.248;6.930;2022-07-23T13:32:07;27.30;96.20
13322;DHT22;6730;46.248;6.930;2022-07-23T13:34:32;27.30;96.40
13322;DHT22;6730;46.248;6.930;2022-07-23T13:36:58;27.10;97.40
13322;DHT22;6730;46.248;6.930;2022-07-23T13:39:24;27.20;97.30
13322;DHT22;6730;46.248;6.930;2022-07-23T13:41:49;27.40;96.30
13322;DHT22;6730;46.248;6.930;2022-07-23T13:44:15;27.30;96.60
13322;DHT22;6730;46.248;6.930;2022-07-23T13:46:41;27.20;96.40
13322;DHT22;6730;46.248;6.930;2022-07-23T13:49:06;27.00;96.50
13322;DHT22;6730;46.248;6.930;2022-07-23T13:51:32;27.10;96.70
13322;DHT22;6730;46.248;6.930;2022-07-23T13:53:57;27.10;96.50
13322;DHT22;6730;46.248;6.930;2022-07-23T13:56:24;27.10;96.50
13322;DHT22;6730;46.248;6.930;2022-07-23T13:58:50;26.80;96.70
13322;DHT22;6730;46.248;6.930;2022-07-23T14:01:16;26.80;96.70
13322;DHT22;6730;46.248;6.930;2022-07-23T14:03:41;26.80;96.70
13322;DHT22;6730;46.248;6.930;2022-07-23T14:06:07;26.80;96.60
13322;DHT22;6730;46.248;6.930;2022-07-23T14:08:33;26.60;96.70
13322;DHT22;6730;46.248;6.930;2022-07-23T14:10:58;26.60;97.00
13322;DHT22;6730;46.248;6.930;2022-07-23T14:13:24;26.70;97.10
13322;DHT22;6730;46.248;6.930;2022-07-23T14:15:50;26.70;96.30
13322;DHT22;6730;46.248;6.930;2022-07-23T14:18:16;26.70;96.40
13322;DHT22;6730;46.248;6.930;2022-07-23T14:20:42;26.80;96.70
13322;DHT22;6730;46.248;6.930;2022-07-23T14:23:07;26.80;96.90
13322;DHT22;6730;46.248;6.930;2022-07-23T14:25:33;26.80;97.00
13322;DHT22;6730;46.248;6.930;2022-07-23T14:27:59;26.90;96.90
13322;DHT22;6730;46.248;6.930;2022-07-23T14:30:25;26.80;97.80
13322;DHT22;6730;46.248;6.930;2022-07-23T14:32:51;27.00;97.00
13322;DHT22;6730;46.248;6.930;2022-07-23T14:35:16;26.90;97.40
13322;DHT22;6730;46.248;6.930;2022-07-23T14:37:44;26.90;97.10
13322;DHT22;6730;46.248;6.930;2022-07-23T14:40:09;26.80;97.00
13322;DHT22;6730;46.248;6.930;2022-07-23T14:42:35;27.00;96.70
13322;DHT22;6730;46.248;6.930;2022-07-23T14:45:01;27.10;96.60
13322;DHT22;6730;46.248;6.930;2022-07-23T14:47:26;26.90;96.60
13322;DHT22;6730;46.248;6.930;2022-07-23T14:49:52;26.60;97.00
13322;DHT22;6730;46.248;6.930;2022-07-23T14:52:18;26.50;97.10
13322;DHT22;6730;46.248;6.930;2022-07-23T14:54:44;26.50;97.20
13322;DHT22;6730;46.248;6.930;2022-07-23T14:57:09;26.50;97.30
13322;DHT22;6730;46.248;6.930;2022-07-23T14:59:35;26.40;97.60
13322;DHT22;6730;46.248;6.930;2022-07-23T15:02:01;26.60;97.20
13322;DHT22;6730;46.248;6.930;2022-07-23T15:04:27;26.60;97.00
13322;DHT22;6730;46.248;6.930;2022-07-23T15:06:53;26.30;97.40
13322;DHT22;6730;46.248;6.930;2022-07-23T15:09:18;26.60;96.80
13322;DHT22;6730;46.248;6.930;2022-07-23T15:11:44;26.70;96.80
13322;DHT22;6730;46.248;6.930;2022-07-23T15:14:10;26.80;97.10
13322;DHT22;6730;46.248;6.930;2022-07-23T15:16:36;27.00;97.80
13322;DHT22;6730;46.248;6.930;2022-07-23T15:19:03;27.20;97.60
13322;DHT22;6730;46.248;6.930;2022-07-23T15:21:29;27.40;96.70
13322;DHT22;6730;46.248;6.930;2022-07-23T15:23:56;27.20;97.50
13322;DHT22;6730;46.248;6.930;2022-07-23T15:26:25;27.20;97.60
13322;DHT22;6730;46.248;6.930;2022-07-23T15:28:51;27.50;96.70
13322;DHT22;6730;46.248;6.930;2022-07-23T15:31:16;27.80;95.20
13322;DHT22;6730;46.248;6.930;2022-07-23T15:33:42;27.90;95.10
13322;DHT22;6730;46.248;6.930;2022-07-23T15:36:08;28.00;95.30
13322;DHT22;6730;46.248;6.930;2022-07-23T15:38:35;28.00;96.30
13322;DHT22;6730;46.248;6.930;2022-07-23T15:41:00;27.70;95.70
13322;DHT22;6730;46.248;6.930;2022-07-23T15:43:26;27.70;96.30
13322;DHT22;6730;46.248;6.930;2022-07-23T15:45:52;27.80;95.70
13322;DHT22;6730;46.248;6.930;2022-07-23T15:48:19;27.90;95.60
13322;DHT22;6730;46.248;6.930;2022-07-23T15:50:46;28.00;95.40
13322;DHT22;6730;46.248;6.930;2022-07-23T15:53:12;28.10;95.50
13322;DHT22;6730;46.248;6.930;2022-07-23T15:55:38;27.80;95.60
13322;DHT22;6730;46.248;6.930;2022-07-23T15:58:04;27.60;95.30
13322;DHT22;6730;46.248;6.930;2022-07-23T16:00:30;27.50;95.50
13322;DHT22;6730;46.248;6.930;2022-07-23T16:02:56;27.40;96.40
13322;DHT22;6730;46.248;6.930;2022-07-23T16:05:21;27.40;95.80
13322;DHT22;6730;46.248;6.930;2022-07-23T16:07:58;27.50;96.00
13322;DHT22;6730;46.248;6.930;2022-07-23T16:10:24;27.50;95.70
13322;DHT22;6730;46.248;6.930;2022-07-23T16:12:50;27.60;95.30
13322;DHT22;6730;46.248;6.930;2022-07-23T16:15:15;27.50;95.30
13322;DHT22;6730;46.248;6.930;2022-07-23T16:17:41;27.60;95.40
13322;DHT22;6730;46.248;6.930;2022-07-23T16:20:07;27.60;96.10
13322;DHT22;6730;46.248;6.930;2022-07-23T16:22:34;27.80;95.40